sensor_id;sensor_type;location;lat;lon;timestamp;pressure;altitude;pressure_sealevel;temperature;humidity
24620;BME280;12763;55.802;37.404;2023-12-22T00:01:33;97204.09;;;3.66;100.00
24620;BME280;12763;55.802;37.404;2023-12-22T00:04:01;97201.59;;;3.65;100.00
24620;BME280;12763;55.802;37.404;2023-12-22T00:06:27;97196.13;;;3.65;100.00
24620;BME280;12763;55.802;37.404;2023-12-22T00:08:53;97198.44;;;3.79;100.00
24620;BME280;12763;55.802;37.404;2023-12-22T00:11:19;97204.09;;;3.66;100.00
24620;BME280;12763;55.802;37.404;2023-12-22T00:13:45;97199.69;;;3.65;100.00
24620;BME280;12763;55.802;37.404;2023-12-22T00:16:10;97193.03;;;3.31;100.00
24620;BME280;12763;55.802;37.404;2023-12-22T00:18:37;97196.69;;;3.55;100.00
24620;BME280;12763;55.802;37.404;2023-12-22T00:21:03;97183.63;;;3.75;100.00
24620;BME280;12763;55.802;37.404;2023-12-22T00:23:29;97198.84;;;3.35;100.00
24620;BME280;12763;55.802;37.404;2023-12-22T00:25:56;97189.94;;;3.58;100.00
24620;BME280;12763;55.802;37.404;2023-12-22T00:28:22;97178.91;;;3.52;100.00
24620;BME280;12763;55.802;37.404;2023-12-22T00:30:47;97181.72;;;3.46;100.00
24620;BME280;12763;55.802;37.404;2023-12-22T00:33:14;97177.69;;;3.48;100.00
24620;BME280;12763;55.802;37.404;2023-12-22T00:35:40;97182.97;;;3.62;100.00
24620;BME280;12763;55.802;37.404;2023-12-22T00:38:06;97165.59;;;3.44;100.00
24620;BME280;12763;55.802;37.404;2023-12-22T00:40:32;97162.94;;;3.56;100.00
24620;BME280;12763;55.802;37.404;2023-12-22T00:42:58;97173.59;;;3.58;100.00
24620;BME280;12763;55.802;37.404;2023-12-22T00:45:24;97171.56;;;3.53;100.00
24620;BME280;12763;55.802;37.404;2023-12-22T00:47:50;97166.78;;;3.48;100.00
24620;BME280;12763;55.802;37.404;2023-12-22T00:50:16;97176.19;;;3.52;100.00
24620;BME280;12763;55.802;37.404;2023-12-22T00:52:42;97161.78;;;3.45;100.00
24620;BME280;12763;55.802;37.404;2023-12-22T00:55:08;97162.16;;;3.49;100.00
24620;BME280;12763;55.802;37.404;2023-12-22T00:57:34;97158.75;;;3.53;100.00
24620;BME280;12763;55.802;37.404;2023-12-22T01:00:00;97158.09;;;3.40;100.00
24620;BME280;12763;55.802;37.404;2023-12-22T01:02:26;97160.38;;;3.43;100.00
24620;BME280;12763;55.802;37.404;2023-12-22T01:04:52;97157.41;;;3.44;100.00
24620;BME280;12763;55.802;37.404;2023-12-22T01:07:17;97166.44;;;3.45;100.00
24620;BME280;12763;55.802;37.404;2023-12-22T01:09:44;97166.91;;;3.42;100.00
24620;BME280;12763;55.802;37.404;2023-12-22T01:12:10;97169.03;;;3.70;100.00
24620;BME280;12763;55.802;37.404;2023-12-22T01:14:36;97151.91;;;3.63;100.00
24620;BME280;12763;55.802;37.404;2023-12-22T01:17:02;97152.50;;;3.65;100.00
24620;BME280;12763;55.802;37.404;2023-12-22T01:19:28;97153.84;;;3.74;100.00
24620;BME280;12763;55.802;37.404;2023-12-22T01:21:54;97165.00;;;3.42;100.00
24620;BME280;12763;55.802;37.404;2023-12-22T01:24:20;97165.31;;;3.64;100.00
24620;BME280;12763;55.802;37.404;2023-12-22T01:26:46;97161.50;;;3.65;100.00
24620;BME280;12763;55.802;37.404;2023-12-22T01:29:12;97162.75;;;3.51;100.00
24620;BME280;12763;55.802;37.404;2023-12-22T01:31:38;97156.19;;;3.59;100.00
24620;BME280;12763;55.802;37.404;2023-12-22T01:34:04;97154.88;;;3.61;100.00
24620;BME280;12763;55.802;37.404;2023-12-22T01:36:30;97142.88;;;3.50;100.00
24620;BME280;12763;55.802;37.404;2023-12-22T01:38:56;97147.56;;;3.43;100.00
24620;BME280;12763;55.802;37.404;2023-12-22T01:41:22;97143.22;;;3.54;100.00
24620;BME280;12763;55.802;37.404;2023-12-22T01:43:48;97146.22;;;3.64;100.00
24620;BME280;12763;55.802;37.404;2023-12-22T01:46:14;97144.25;;;3.41;100.00
24620;BME280;12763;55.802;37.404;2023-12-22T01:48:40;97149.00;;;3.46;100.00
24620;BME280;12763;55.802;37.404;2023-12-22T01:51:06;97138.06;;;3.64;100.00
24620;BME280;12763;55.802;37.404;2023-12-22T01:53:33;97135.84;;;3.73;100.00
24620;BME280;12763;55.802;37.404;2023-12-22T01:56:00;97146.19;;;3.52;100.00
24620;BME280;12763;55.802;37.404;2023-12-22T01:58:29;97139.53;;;3.48;100.00
24620;BME280;12763;55.802;37.404;2023-12-22T02:01:04;97133.34;;;3.41;100.00
24620;BME280;12763;55.802;37.404;2023-12-22T02:03:32;97136.88;;;3.72;100.00
24620;BME280;12763;55.802;37.404;2023-12-22T02:05:58;97135.53;;;3.63;100.00
24620;BME280;12763;55.802;37.404;2023-12-22T02:08:26;97131.47;;;3.42;100.00
24620;BME280;12763;55.802;37.404;2023-12-22T02:10:53;97132.88;;;3.44;100.00
24620;BME280;12763;55.802;37.404;2023-12-22T02:13:19;97131.97;;;3.50;100.00
24620;BME280;12763;55.802;37.404;2023-12-22T02:15:47;97130.09;;;3.63;100.00
24620;BME280;12763;55.802;37.404;2023-12-22T02:18:27;97119.47;;;3.73;100.00
24620;BME280;12763;55.802;37.404;2023-12-22T02:20:56;97123.47;;;3.70;100.00
24620;BME280;12763;55.802;37.404;2023-12-22T02:23:22;97115.44;;;3.75;100.00
24620;BME280;12763;55.802;37.404;2023-12-22T02:25:54;97118.38;;;3.74;100.00
24620;BME280;12763;55.802;37.404;2023-12-22T02:28:23;97125.00;;;3.66;100.00
24620;BME280;12763;55.802;37.404;2023-12-22T02:31:09;97120.41;;;3.67;100.00
24620;BME280;12763;55.802;37.404;2023-12-22T02:33:41;97110.16;;;3.50;100.00
24620;BME280;12763;55.802;37.404;2023-12-22T02:36:08;97118.81;;;3.59;100.00
24620;BME280;12763;55.802;37.404;2023-12-22T02:38:36;97100.97;;;3.75;100.00
24620;BME280;12763;55.802;37.404;2023-12-22T02:41:03;97128.91;;;3.59;100.00
24620;BME280;12763;55.802;37.404;2023-12-22T02:43:29;97112.53;;;3.59;100.00
24620;BME280;12763;55.802;37.404;2023-12-22T02:45:55;97110.47;;;3.84;100.00
24620;BME280;12763;55.802;37.404;2023-12-22T02:48:21;97106.13;;;3.65;100.00
24620;BME280;12763;55.802;37.404;2023-12-22T02:50:47;97107.13;;;3.82;100.00
24620;BME280;12763;55.802;37.404;2023-12-22T02:53:13;97089.47;;;3.84;100.00
24620;BME280;12763;55.802;37.404;2023-12-22T02:55:39;97081.19;;;3.91;100.00
24620;BME280;12763;55.802;37.404;2023-12-22T02:58:05;97088.66;;;3.84;100.00
24620;BME280;12763;55.802;37.404;2023-12-22T03:00:31;97083.28;;;3.77;100.00
24620;BME280;12763;55.802;37.404;2023-12-22T03:02:57;97080.06;;;3.69;100.00
24620;BME280;12763;55.802;37.404;2023-12-22T03:05:23;97079.16;;;3.86;100.00
24620;BME280;12763;55.802;37.404;2023-12-22T03:07:49;97082.59;;;3.93;100.00
24620;BME280;12763;55.802;37.404;2023-12-22T03:10:14;97089.91;;;3.58;100.00
24620;BME280;12763;55.802;37.404;2023-12-22T03:12:40;97082.56;;;3.70;100.00
24620;BME280;12763;55.802;37.404;2023-12-22T03:15:07;97079.34;;;3.73;100.00
24620;BME280;12763;55.802;37.404;2023-12-22T03:17:33;97081.94;;;3.56;100.00
24620;BME280;12763;55.802;37.404;2023-12-22T03:19:59;97094.28;;;3.71;100.00
24620;BME280;12763;55.802;37.404;2023-12-22T03:22:24;97092.75;;;3.63;100.00
24620;BME280;12763;55.802;37.404;2023-12-22T03:24:50;97089.56;;;3.66;100.00
24620;BME280;12763;55.802;37.404;2023-12-22T03:27:17;97088.03;;;3.82;100.00
24620;BME280;12763;55.802;37.404;2023-12-22T03:29:44;97090.72;;;3.59;100.00
24620;BME280;12763;55.802;37.404;2023-12-22T03:32:10;97089.53;;;3.54;100.00
24620;BME280;12763;55.802;37.404;2023-12-22T03:34:36;97085.44;;;3.75;100.00
24620;BME280;12763;55.802;37.404;2023-12-22T03:37:02;97079.25;;;3.68;100.00
24620;BME280;12763;55.802;37.404;2023-12-22T03:39:29;97081.00;;;3.63;100.00
24620;BME280;12763;55.802;37.404;2023-12-22T03:41:55;97074.63;;;3.69;100.00
24620;BME280;12763;55.802;37.404;2023-12-22T03:44:21;97072.97;;;3.79;100.00
24620;BME280;12763;55.802;37.404;2023-12-22T03:46:47;97075.31;;;3.76;100.00
24620;BME280;12763;55.802;37.404;2023-12-22T03:49:13;97066.59;;;3.85;100.00
24620;BME280;12763;55.802;37.404;2023-12-22T03:51:39;97066.56;;;3.74;100.00
24620;BME280;12763;55.802;37.404;2023-12-22T03:54:07;97068.91;;;3.59;100.00
24620;BME280;12763;55.802;37.404;2023-12-22T03:56:33;97068.94;;;3.82;100.00
24620;BME280;12763;55.802;37.404;2023-12-22T03:58:59;97048.63;;;3.54;100.00
24620;BME280;12763;55.802;37.404;2023-12-22T04:01:25;97049.69;;;3.53;100.00
24620;BME280;12763;55.802;37.404;2023-12-22T04:03:51;97053.09;;;3.37;100.00
24620;BME280;12763;55.802;37.404;2023-12-22T04:06:17;97056.63;;;3.91;100.00
24620;BME280;12763;55.802;37.404;2023-12-22T04:08:43;97052.81;;;3.69;100.00
24620;BME280;12763;55.802;37.404;2023-12-22T04:11:09;97045.94;;;3.78;100.00
24620;BME280;12763;55.802;37.404;2023-12-22T04:13:35;97043.91;;;3.73;100.00
24620;BME280;12763;55.802;37.404;2023-12-22T04:16:02;97042.63;;;3.87;100.00
24620;BME280;12763;55.802;37.404;2023-12-22T04:18:30;97040.25;;;3.91;100.00
24620;BME280;12763;55.802;37.404;2023-12-22T04:20:57;97035.63;;;3.80;100.00
24620;BME280;12763;55.802;37.404;2023-12-22T04:23:23;97030.66;;;3.88;100.00
24620;BME280;12763;55.802;37.404;2023-12-22T04:25:49;97022.91;;;3.74;100.00
24620;BME280;12763;55.802;37.404;2023-12-22T04:28:16;97025.28;;;3.70;100.00
24620;BME280;12763;55.802;37.404;2023-12-22T04:30:42;97029.09;;;3.81;100.00
24620;BME280;12763;55.802;37.404;2023-12-22T04:33:08;97028.66;;;3.84;100.00
24620;BME280;12763;55.802;37.404;2023-12-22T04:35:34;97019.00;;;3.81;100.00
24620;BME280;12763;55.802;37.404;2023-12-22T04:38:00;97027.41;;;3.56;100.00
24620;BME280;12763;55.802;37.404;2023-12-22T04:40:26;97011.06;;;3.80;100.00
24620;BME280;12763;55.802;37.404;2023-12-22T04:42:53;97018.31;;;3.74;100.00
24620;BME280;12763;55.802;37.404;2023-12-22T04:45:20;97006.09;;;3.88;100.00
24620;BME280;12763;55.802;37.404;2023-12-22T04:47:46;97014.41;;;4.05;100.00
24620;BME280;12763;55.802;37.404;2023-12-22T04:50:12;97004.91;;;3.96;100.00
24620;BME280;12763;55.802;37.404;2023-12-22T04:52:38;97011.44;;;3.83;100.00
24620;BME280;12763;55.802;37.404;2023-12-22T04:55:04;96997.06;;;3.65;100.00
24620;BME280;12763;55.802;37.404;2023-12-22T04:57:30;97003.22;;;3.60;100.00
24620;BME280;12763;55.802;37.404;2023-12-22T04:59:56;97001.84;;;3.81;100.00
24620;BME280;12763;55.802;37.404;2023-12-22T05:02:22;96997.78;;;3.72;100.00
24620;BME280;12763;55.802;37.404;2023-12-22T05:04:50;97001.69;;;3.87;100.00
24620;BME280;12763;55.802;37.404;2023-12-22T05:07:16;96992.34;;;3.95;100.00
24620;BME280;12763;55.802;37.404;2023-12-22T05:09:43;96996.50;;;3.97;100.00
24620;BME280;12763;55.802;37.404;2023-12-22T05:12:09;96997.91;;;4.00;100.00
24620;BME280;12763;55.802;37.404;2023-12-22T05:14:35;96990.44;;;3.84;100.00
24620;BME280;12763;55.802;37.404;2023-12-22T05:17:01;96991.16;;;3.91;100.00
24620;BME280;12763;55.802;37.404;2023-12-22T05:19:27;96999.09;;;3.81;100.00
24620;BME280;12763;55.802;37.404;2023-12-22T05:21:53;96999.69;;;3.83;100.00
24620;BME280;12763;55.802;37.404;2023-12-22T05:24:22;96999.94;;;3.70;100.00
24620;BME280;12763;55.802;37.404;2023-12-22T05:26:48;97006.09;;;4.00;100.00
24620;BME280;12763;55.802;37.404;2023-12-22T05:29:15;96995.75;;;3.79;100.00
24620;BME280;12763;55.802;37.404;2023-12-22T05:31:41;96999.31;;;3.79;100.00
24620;BME280;12763;55.802;37.404;2023-12-22T05:34:07;97009.78;;;3.82;100.00
24620;BME280;12763;55.802;37.404;2023-12-22T05:36:36;97010.47;;;4.01;100.00
24620;BME280;12763;55.802;37.404;2023-12-22T05:39:02;96999.59;;;3.89;100.00
24620;BME280;12763;55.802;37.404;2023-12-22T05:41:28;96997.91;;;4.00;100.00
24620;BME280;12763;55.802;37.404;2023-12-22T05:43:54;96996.97;;;3.83;100.00
24620;BME280;12763;55.802;37.404;2023-12-22T05:46:21;96999.22;;;3.86;100.00
24620;BME280;12763;55.802;37.404;2023-12-22T05:48:47;97007.41;;;3.74;100.00
24620;BME280;12763;55.802;37.404;2023-12-22T05:51:13;96999.34;;;3.91;100.00
24620;BME280;12763;55.802;37.404;2023-12-22T05:53:40;97007.78;;;3.89;100.00
24620;BME280;12763;55.802;37.404;2023-12-22T05:56:22;97007.41;;;3.97;100.00
24620;BME280;12763;55.802;37.404;2023-12-22T05:58:49;96998.50;;;4.02;100.00
24620;BME280;12763;55.802;37.404;2023-12-22T06:01:18;97007.75;;;4.01;100.00
24620;BME280;12763;55.802;37.404;2023-12-22T06:03:45;97007.03;;;3.94;100.00
24620;BME280;12763;55.802;37.404;2023-12-22T06:06:12;97008.94;;;3.82;100.00
24620;BME280;12763;55.802;37.404;2023-12-22T06:08:39;97012.97;;;3.79;100.00
24620;BME280;12763;55.802;37.404;2023-12-22T06:11:05;97010.00;;;3.69;100.00
24620;BME280;12763;55.802;37.404;2023-12-22T06:13:31;97021.13;;;3.68;100.00
24620;BME280;12763;55.802;37.404;2023-12-22T06:15:58;97008.44;;;3.73;100.00
24620;BME280;12763;55.802;37.404;2023-12-22T06:18:24;97010.59;;;3.83;100.00
24620;BME280;12763;55.802;37.404;2023-12-22T06:20:50;97008.94;;;3.82;100.00
24620;BME280;12763;55.802;37.404;2023-12-22T06:23:16;97010.03;;;3.81;100.00
24620;BME280;12763;55.802;37.404;2023-12-22T06:25:42;97008.00;;;3.88;100.00
24620;BME280;12763;55.802;37.404;2023-12-22T06:28:09;97007.50;;;3.79;100.00
24620;BME280;12763;55.802;37.404;2023-12-22T06:30:35;97006.56;;;3.74;100.00
24620;BME280;12763;55.802;37.404;2023-12-22T06:33:01;97006.22;;;3.93;100.00
24620;BME280;12763;55.802;37.404;2023-12-22T06:35:27;97019.47;;;3.90;100.00
24620;BME280;12763;55.802;37.404;2023-12-22T06:37:53;97023.75;;;3.74;100.00
24620;BME280;12763;55.802;37.404;2023-12-22T06:40:21;97025.25;;;3.35;100.00
24620;BME280;12763;55.802;37.404;2023-12-22T06:42:47;97023.06;;;3.67;100.00
24620;BME280;12763;55.802;37.404;2023-12-22T06:45:22;97024.78;;;3.38;100.00
24620;BME280;12763;55.802;37.404;2023-12-22T06:48:24;97035.00;;;3.54;100.00
24620;BME280;12763;55.802;37.404;2023-12-22T06:50:51;97026.25;;;3.76;100.00
24620;BME280;12763;55.802;37.404;2023-12-22T06:53:17;97030.25;;;3.50;100.00
24620;BME280;12763;55.802;37.404;2023-12-22T06:55:43;97043.66;;;3.63;100.00
24620;BME280;12763;55.802;37.404;2023-12-22T06:58:10;97033.81;;;3.50;100.00
24620;BME280;12763;55.802;37.404;2023-12-22T07:00:36;97036.66;;;3.55;100.00
24620;BME280;12763;55.802;37.404;2023-12-22T07:03:03;97031.56;;;3.71;100.00
24620;BME280;12763;55.802;37.404;2023-12-22T07:05:29;97037.97;;;3.65;100.00
24620;BME280;12763;55.802;37.404;2023-12-22T07:07:55;97037.03;;;3.82;100.00
24620;BME280;12763;55.802;37.404;2023-12-22T07:10:21;97021.88;;;3.86;100.00
24620;BME280;12763;55.802;37.404;2023-12-22T07:12:47;97027.31;;;3.75;100.00
24620;BME280;12763;55.802;37.404;2023-12-22T07:15:13;97026.38;;;4.04;100.00
24620;BME280;12763;55.802;37.404;2023-12-22T07:17:39;97024.94;;;3.67;100.00
24620;BME280;12763;55.802;37.404;2023-12-22T07:20:06;97037.50;;;3.68;100.00
24620;BME280;12763;55.802;37.404;2023-12-22T07:22:32;97036.69;;;3.90;100.00
24620;BME280;12763;55.802;37.404;2023-12-22T07:24:58;97020.22;;;3.97;100.00
24620;BME280;12763;55.802;37.404;2023-12-22T07:27:24;97014.97;;;4.07;100.00
24620;BME280;12763;55.802;37.404;2023-12-22T07:29:51;97017.59;;;4.02;100.00
24620;BME280;12763;55.802;37.404;2023-12-22T07:32:17;97023.03;;;3.79;100.00
24620;BME280;12763;55.802;37.404;2023-12-22T07:34:46;97015.72;;;4.02;100.00
24620;BME280;12763;55.802;37.404;2023-12-22T07:37:12;97023.66;;;3.81;100.00
24620;BME280;12763;55.802;37.404;2023-12-22T07:39:38;97015.31;;;3.76;100.00
24620;BME280;12763;55.802;37.404;2023-12-22T07:42:04;97011.19;;;3.85;100.00
24620;BME280;12763;55.802;37.404;2023-12-22T07:44:32;97006.09;;;3.77;100.00
24620;BME280;12763;55.802;37.404;2023-12-22T07:46:58;97008.91;;;3.70;100.00
24620;BME280;12763;55.802;37.404;2023-12-22T07:49:26;96995.78;;;3.90;100.00
24620;BME280;12763;55.802;37.404;2023-12-22T07:51:53;97001.13;;;3.97;100.00
24620;BME280;12763;55.802;37.404;2023-12-22T07:54:19;96994.34;;;4.11;100.00
24620;BME280;12763;55.802;37.404;2023-12-22T07:56:46;96991.72;;;4.04;100.00
24620;BME280;12763;55.802;37.404;2023-12-22T07:59:12;97000.97;;;4.03;100.00
24620;BME280;12763;55.802;37.404;2023-12-22T08:01:38;96995.53;;;3.69;100.00
24620;BME280;12763;55.802;37.404;2023-12-22T08:04:04;96990.94;;;3.81;100.00
24620;BME280;12763;55.802;37.404;2023-12-22T08:06:30;96993.63;;;4.04;100.00
24620;BME280;12763;55.802;37.404;2023-12-22T08:08:56;96992.09;;;3.85;100.00
24620;BME280;12763;55.802;37.404;2023-12-22T08:11:23;96996.34;;;4.04;100.00
24620;BME280;12763;55.802;37.404;2023-12-22T08:13:51;96982.72;;;4.04;100.00
24620;BME280;12763;55.802;37.404;2023-12-22T08:16:19;96982.38;;;3.89;100.00
24620;BME280;12763;55.802;37.404;2023-12-22T08:18:45;96973.69;;;4.03;100.00
24620;BME280;12763;55.802;37.404;2023-12-22T08:21:11;96964.63;;;4.26;100.00
24620;BME280;12763;55.802;37.404;2023-12-22T08:23:37;96965.06;;;3.95;100.00
24620;BME280;12763;55.802;37.404;2023-12-22T08:26:03;96961.34;;;4.24;100.00
24620;BME280;12763;55.802;37.404;2023-12-22T08:28:29;96964.56;;;4.09;100.00
24620;BME280;12763;55.802;37.404;2023-12-22T08:30:58;96960.50;;;4.24;100.00
24620;BME280;12763;55.802;37.404;2023-12-22T08:33:24;96949.22;;;4.20;100.00
24620;BME280;12763;55.802;37.404;2023-12-22T08:35:50;96959.94;;;3.98;100.00
24620;BME280;12763;55.802;37.404;2023-12-22T08:38:16;96955.00;;;3.84;100.00
24620;BME280;12763;55.802;37.404;2023-12-22T08:40:42;96954.38;;;3.93;100.00
24620;BME280;12763;55.802;37.404;2023-12-22T08:43:08;96949.06;;;3.75;100.00
24620;BME280;12763;55.802;37.404;2023-12-22T08:45:34;96952.69;;;4.04;100.00
24620;BME280;12763;55.802;37.404;2023-12-22T08:48:01;96956.63;;;4.08;100.00
24620;BME280;12763;55.802;37.404;2023-12-22T08:50:28;96953.63;;;4.21;100.00
24620;BME280;12763;55.802;37.404;2023-12-22T08:52:53;96960.81;;;4.39;100.00
24620;BME280;12763;55.802;37.404;2023-12-22T08:55:19;96949.16;;;4.43;100.00
24620;BME280;12763;55.802;37.404;2023-12-22T08:57:45;96956.88;;;4.46;100.00
24620;BME280;12763;55.802;37.404;2023-12-22T09:00:12;96955.22;;;4.45;100.00
24620;BME280;12763;55.802;37.404;2023-12-22T09:02:38;96957.47;;;3.97;100.00
24620;BME280;12763;55.802;37.404;2023-12-22T09:05:04;96954.44;;;4.33;100.00
24620;BME280;12763;55.802;37.404;2023-12-22T09:07:33;96956.81;;;4.30;100.00
24620;BME280;12763;55.802;37.404;2023-12-22T09:09:59;96956.59;;;4.20;100.00
24620;BME280;12763;55.802;37.404;2023-12-22T09:12:25;96961.44;;;4.18;100.00
24620;BME280;12763;55.802;37.404;2023-12-22T09:14:51;96957.81;;;4.52;100.00
24620;BME280;12763;55.802;37.404;2023-12-22T09:17:17;96961.06;;;4.37;100.00
24620;BME280;12763;55.802;37.404;2023-12-22T09:19:43;96961.53;;;4.34;100.00
24620;BME280;12763;55.802;37.404;2023-12-22T09:22:09;96965.00;;;4.30;100.00
24620;BME280;12763;55.802;37.404;2023-12-22T09:24:35;96961.84;;;4.61;100.00
24620;BME280;12763;55.802;37.404;2023-12-22T09:27:02;96959.97;;;4.78;100.00
24620;BME280;12763;55.802;37.404;2023-12-22T09:29:32;96944.28;;;4.45;100.00
24620;BME280;12763;55.802;37.404;2023-12-22T09:32:00;96951.03;;;4.54;100.00
24620;BME280;12763;55.802;37.404;2023-12-22T09:34:26;96949.88;;;4.79;100.00
24620;BME280;12763;55.802;37.404;2023-12-22T09:36:54;96941.16;;;5.10;100.00
24620;BME280;12763;55.802;37.404;2023-12-22T09:39:20;96942.63;;;5.01;100.00
24620;BME280;12763;55.802;37.404;2023-12-22T09:41:48;96928.88;;;4.96;100.00
24620;BME280;12763;55.802;37.404;2023-12-22T09:44:20;96932.63;;;5.06;100.00
24620;BME280;12763;55.802;37.404;2023-12-22T09:46:49;96932.94;;;4.65;100.00
24620;BME280;12763;55.802;37.404;2023-12-22T09:49:19;96937.38;;;5.11;100.00
24620;BME280;12763;55.802;37.404;2023-12-22T09:51:46;96939.28;;;5.27;100.00
24620;BME280;12763;55.802;37.404;2023-12-22T09:54:15;96927.50;;;5.10;100.00
24620;BME280;12763;55.802;37.404;2023-12-22T09:56:41;96932.03;;;5.04;100.00
24620;BME280;12763;55.802;37.404;2023-12-22T09:59:13;96936.19;;;5.07;100.00
24620;BME280;12763;55.802;37.404;2023-12-22T10:01:43;96928.22;;;5.22;100.00
24620;BME280;12763;55.802;37.404;2023-12-22T10:04:13;96928.22;;;5.22;100.00
24620;BME280;12763;55.802;37.404;2023-12-22T10:06:40;96917.47;;;5.15;100.00
24620;BME280;12763;55.802;37.404;2023-12-22T10:09:06;96916.13;;;5.01;100.00
24620;BME280;12763;55.802;37.404;2023-12-22T10:11:35;96926.41;;;5.27;100.00
24620;BME280;12763;55.802;37.404;2023-12-22T10:14:05;96912.09;;;5.20;100.00
24620;BME280;12763;55.802;37.404;2023-12-22T10:16:32;96914.00;;;5.20;100.00
24620;BME280;12763;55.802;37.404;2023-12-22T10:18:59;96902.97;;;5.15;100.00
24620;BME280;12763;55.802;37.404;2023-12-22T10:21:26;96897.75;;;4.97;100.00
24620;BME280;12763;55.802;37.404;2023-12-22T10:23:52;96911.00;;;5.05;100.00
24620;BME280;12763;55.802;37.404;2023-12-22T10:26:18;96908.84;;;4.90;100.00
24620;BME280;12763;55.802;37.404;2023-12-22T10:28:47;96899.56;;;4.91;100.00
24620;BME280;12763;55.802;37.404;2023-12-22T10:31:13;96898.69;;;5.02;100.00
24620;BME280;12763;55.802;37.404;2023-12-22T10:33:39;96904.38;;;5.01;100.00
24620;BME280;12763;55.802;37.404;2023-12-22T10:36:07;96896.94;;;4.96;100.00
24620;BME280;12763;55.802;37.404;2023-12-22T10:38:33;96890.69;;;4.56;100.00
24620;BME280;12763;55.802;37.404;2023-12-22T10:41:03;96889.34;;;4.70;100.00
24620;BME280;12763;55.802;37.404;2023-12-22T10:43:29;96888.31;;;4.59;100.00
24620;BME280;12763;55.802;37.404;2023-12-22T10:45:55;96882.78;;;4.54;100.00
24620;BME280;12763;55.802;37.404;2023-12-22T10:48:24;96884.13;;;4.68;100.00
24620;BME280;12763;55.802;37.404;2023-12-22T10:50:50;96881.75;;;4.44;100.00
24620;BME280;12763;55.802;37.404;2023-12-22T10:53:16;96876.72;;;4.24;100.00
24620;BME280;12763;55.802;37.404;2023-12-22T10:55:42;96874.09;;;4.29;100.00
24620;BME280;12763;55.802;37.404;2023-12-22T10:58:08;96871.13;;;4.31;100.00
24620;BME280;12763;55.802;37.404;2023-12-22T11:00:37;96877.19;;;4.21;100.00
24620;BME280;12763;55.802;37.404;2023-12-22T11:03:07;96864.66;;;4.37;100.00
24620;BME280;12763;55.802;37.404;2023-12-22T11:05:36;96863.16;;;4.29;100.00
24620;BME280;12763;55.802;37.404;2023-12-22T11:08:03;96862.72;;;4.49;100.00
24620;BME280;12763;55.802;37.404;2023-12-22T11:10:30;96859.69;;;4.62;100.00
24620;BME280;12763;55.802;37.404;2023-12-22T11:12:57;96859.75;;;4.50;100.00
24620;BME280;12763;55.802;37.404;2023-12-22T11:15:24;96854.00;;;4.63;100.00
24620;BME280;12763;55.802;37.404;2023-12-22T11:17:55;96859.13;;;4.60;100.00
24620;BME280;12763;55.802;37.404;2023-12-22T11:20:22;96854.88;;;4.52;100.00
24620;BME280;12763;55.802;37.404;2023-12-22T11:22:49;96855.47;;;4.54;100.00
24620;BME280;12763;55.802;37.404;2023-12-22T11:25:18;96856.34;;;4.43;100.00
24620;BME280;12763;55.802;37.404;2023-12-22T11:27:46;96865.03;;;4.40;100.00
24620;BME280;12763;55.802;37.404;2023-12-22T11:30:14;96856.47;;;4.37;100.00
24620;BME280;12763;55.802;37.404;2023-12-22T11:32:41;96861.38;;;4.35;100.00
24620;BME280;12763;55.802;37.404;2023-12-22T11:35:08;96848.59;;;4.24;100.00
24620;BME280;12763;55.802;37.404;2023-12-22T11:37:35;96842.22;;;4.06;100.00
24620;BME280;12763;55.802;37.404;2023-12-22T11:40:02;96853.50;;;4.10;100.00
24620;BME280;12763;55.802;37.404;2023-12-22T11:42:33;96841.91;;;4.03;100.00
24620;BME280;12763;55.802;37.404;2023-12-22T11:45:03;96850.84;;;3.87;100.00
24620;BME280;12763;55.802;37.404;2023-12-22T11:47:31;96844.72;;;3.68;100.00
24620;BME280;12763;55.802;37.404;2023-12-22T11:49:58;96840.78;;;3.76;100.00
24620;BME280;12763;55.802;37.404;2023-12-22T11:52:26;96848.38;;;3.74;100.00
24620;BME280;12763;55.802;37.404;2023-12-22T11:54:56;96845.50;;;3.92;100.00
24620;BME280;12763;55.802;37.404;2023-12-22T12:00:05;96826.63;;;3.90;100.00
24620;BME280;12763;55.802;37.404;2023-12-22T12:02:41;96835.81;;;3.73;100.00
24620;BME280;12763;55.802;37.404;2023-12-22T12:05:09;96830.72;;;3.65;100.00
24620;BME280;12763;55.802;37.404;2023-12-22T12:07:45;96835.44;;;3.81;100.00
24620;BME280;12763;55.802;37.404;2023-12-22T12:13:11;96840.28;;;3.79;100.00
24620;BME280;12763;55.802;37.404;2023-12-22T12:15:38;96839.41;;;3.38;100.00
24620;BME280;12763;55.802;37.404;2023-12-22T12:18:05;96830.16;;;3.51;100.00
24620;BME280;12763;55.802;37.404;2023-12-22T12:20:32;96834.34;;;3.42;100.00
24620;BME280;12763;55.802;37.404;2023-12-22T12:23:01;96829.94;;;3.29;100.00
24620;BME280;12763;55.802;37.404;2023-12-22T12:25:32;96838.59;;;3.38;100.00
24620;BME280;12763;55.802;37.404;2023-12-22T12:30:28;96840.25;;;3.27;100.00
24620;BME280;12763;55.802;37.404;2023-12-22T12:32:54;96837.50;;;3.04;100.00
24620;BME280;12763;55.802;37.404;2023-12-22T12:35:28;96827.09;;;3.24;100.00
24620;BME280;12763;55.802;37.404;2023-12-22T12:37:55;96822.34;;;2.96;100.00
24620;BME280;12763;55.802;37.404;2023-12-22T12:40:23;96816.56;;;3.16;100.00
24620;BME280;12763;55.802;37.404;2023-12-22T12:42:50;96820.47;;;2.97;100.00
24620;BME280;12763;55.802;37.404;2023-12-22T12:45:24;96816.69;;;2.98;100.00
24620;BME280;12763;55.802;37.404;2023-12-22T12:48:00;96830.19;;;3.16;100.00
24620;BME280;12763;55.802;37.404;2023-12-22T12:50:28;96817.03;;;3.02;100.00
24620;BME280;12763;55.802;37.404;2023-12-22T12:52:55;96811.09;;;3.05;100.00
24620;BME280;12763;55.802;37.404;2023-12-22T12:55:24;96818.34;;;2.99;100.00
24620;BME280;12763;55.802;37.404;2023-12-22T12:57:52;96820.47;;;3.20;100.00